createdAt,value
2023-04-15T00:01:27.030Z,62.55
2023-04-15T00:06:29.331Z,64.87
2023-04-15T00:11:31.871Z,66.59
2023-04-15T00:16:34.347Z,64.47
2023-04-15T00:21:37.189Z,63.49
2023-04-15T00:26:39.721Z,63.85
2023-04-15T00:31:42.514Z,64.13
2023-04-15T00:36:45.103Z,64.88
2023-04-15T00:41:47.632Z,65.41
2023-04-15T00:46:52.185Z,64.34
2023-04-15T00:51:54.420Z,63.80
2023-04-15T00:56:56.878Z,63.27
2023-04-15T01:01:59.106Z,64.16
2023-04-15T01:07:01.507Z,63.96
2023-04-15T01:12:04.185Z,63.82
2023-04-15T01:17:06.608Z,62.75
2023-04-15T01:22:09.252Z,63.75
2023-04-15T01:27:14.048Z,64.54
2023-04-15T01:32:16.647Z,63.77
2023-04-15T01:37:19.574Z,64.11
2023-04-15T01:42:25.153Z,64.72
2023-04-15T01:47:27.320Z,65.57
2023-04-15T01:52:29.597Z,64.63
2023-04-15T01:57:32.489Z,64.91
2023-04-15T02:02:34.973Z,65.76
2023-04-15T02:07:37.909Z,65.61
2023-04-15T02:12:40.711Z,66.39
2023-04-15T02:17:46.094Z,67.10
2023-04-15T02:22:50.910Z,64.66
2023-04-15T02:27:53.475Z,66.30
2023-04-15T02:32:56.137Z,65.32
2023-04-15T02:38:01.167Z,69.28
2023-04-15T02:43:05.503Z,67.91
2023-04-15T02:48:08.244Z,65.31
2023-04-15T02:53:11.911Z,65.60
2023-04-15T02:58:14.627Z,65.33
2023-04-15T03:03:17.103Z,63.25
2023-04-15T03:08:19.719Z,65.69
2023-04-15T03:13:21.845Z,68.62
2023-04-15T03:18:24.291Z,69.98
2023-04-15T03:23:26.732Z,70.82
2023-04-15T03:28:30.575Z,69.71
2023-04-15T03:33:35.289Z,68.20
2023-04-15T03:38:37.445Z,66.65
2023-04-15T03:43:39.689Z,68.83
2023-04-15T03:48:41.801Z,70.57
2023-04-15T03:53:44.036Z,69.87
2023-04-15T03:58:46.272Z,69.40
2023-04-15T04:03:48.677Z,71.18
2023-04-15T04:08:51.078Z,72.34
2023-04-15T04:13:53.159Z,69.81
2023-04-15T04:18:55.400Z,71.14
2023-04-15T04:23:57.678Z,72.16
2023-04-15T04:29:00.174Z,71.37
2023-04-15T04:34:02.421Z,70.76
2023-04-15T04:39:04.702Z,70.30
2023-04-15T04:44:07.040Z,69.59
2023-04-15T04:49:09.122Z,70.04
2023-04-15T04:54:11.827Z,69.51
2023-04-15T04:59:14.204Z,69.26
2023-04-15T05:04:16.407Z,69.75
2023-04-15T05:09:19.090Z,70.33
2023-04-15T05:14:22.937Z,70.30
2023-04-15T05:19:25.731Z,69.33
2023-04-15T05:24:27.990Z,70.32
2023-04-15T05:29:30.791Z,69.00
2023-04-15T05:34:32.959Z,69.76
2023-04-15T05:39:35.275Z,70.94
2023-04-15T05:44:37.381Z,70.27
2023-04-15T05:49:39.626Z,71.38
2023-04-15T05:54:41.749Z,71.80
2023-04-15T05:59:44.936Z,70.37
2023-04-15T06:04:47.410Z,71.66
2023-04-15T06:09:49.692Z,71.05
2023-04-15T06:14:51.958Z,73.53
2023-04-15T06:19:55.965Z,72.35
2023-04-15T06:24:58.222Z,72.03
2023-04-15T06:30:00.495Z,73.90
2023-04-15T06:35:02.706Z,71.93
2023-04-15T06:40:05.831Z,71.30
2023-04-15T06:45:30.004Z,68.66
2023-04-15T06:50:32.612Z,71.28
2023-04-15T06:55:34.779Z,70.06
2023-04-15T07:00:38.977Z,70.52
2023-04-15T07:05:41.718Z,72.69
2023-04-15T07:10:44.916Z,72.39
2023-04-15T07:15:47.019Z,70.33
2023-04-15T07:20:49.150Z,70.09
2023-04-15T07:25:52.185Z,75.52
2023-04-15T07:30:54.872Z,69.86
2023-04-15T07:35:57.318Z,67.54
2023-04-15T07:40:59.825Z,68.85
2023-04-15T07:46:01.999Z,65.67
2023-04-15T07:51:04.285Z,68.00
2023-04-15T07:56:06.914Z,68.30
2023-04-15T08:01:09.202Z,66.90
2023-04-15T08:06:11.587Z,67.35
2023-04-15T08:11:13.980Z,67.96
2023-04-15T08:16:25.273Z,69.58
2023-04-15T08:21:27.936Z,67.94
2023-04-15T08:26:30.224Z,66.24
2023-04-15T08:31:32.463Z,66.75
2023-04-15T08:36:34.891Z,67.12
2023-04-15T08:41:49.700Z,67.39
2023-04-15T08:46:52.928Z,67.26
2023-04-15T08:51:58.791Z,67.14
2023-04-15T08:57:02.482Z,65.94
2023-04-15T09:02:04.829Z,65.11
2023-04-15T09:07:07.423Z,65.90
2023-04-15T09:12:11.511Z,64.34
2023-04-15T09:17:13.975Z,65.32
2023-04-15T09:22:16.598Z,67.58
2023-04-15T09:27:18.795Z,67.89
2023-04-15T09:32:24.866Z,64.01
2023-04-15T09:37:36.827Z,69.17
2023-04-15T09:42:56.201Z,67.51
2023-04-15T09:48:00.691Z,69.40
2023-04-15T09:53:04.283Z,68.83
2023-04-15T09:58:19.371Z,67.61
2023-04-15T10:03:53.182Z,67.57
2023-04-15T10:09:01.494Z,66.67
2023-04-15T10:14:04.781Z,66.38
2023-04-15T10:19:09.563Z,64.50
2023-04-15T10:24:12.397Z,66.20
2023-04-15T10:29:14.816Z,64.97
2023-04-15T10:34:18.353Z,63.00
2023-04-15T10:39:43.529Z,62.26
2023-04-15T10:44:52.328Z,61.33
2023-04-15T10:50:02.656Z,62.15
2023-04-15T10:55:16.657Z,60.72
2023-04-15T11:00:21.844Z,62.83
2023-04-15T11:05:53.147Z,61.40
2023-04-15T11:10:55.458Z,61.41
2023-04-15T11:15:59.139Z,60.64
2023-04-15T11:21:05.385Z,62.00
2023-04-15T11:26:12.062Z,61.51
2023-04-15T11:31:18.109Z,60.77
2023-04-15T11:36:20.838Z,62.37
2023-04-15T11:41:26.257Z,60.09
2023-04-15T11:46:32.425Z,60.72
2023-04-15T11:51:35.695Z,62.56
2023-04-15T11:56:37.876Z,60.01
2023-04-15T12:01:42.288Z,58.89
2023-04-15T12:06:44.969Z,60.03
2023-04-15T12:11:49.017Z,62.03
2023-04-15T12:16:54.526Z,63.65
2023-04-15T12:22:04.554Z,62.38
2023-04-15T12:27:17.924Z,62.77
2023-04-15T12:32:21.165Z,62.98
2023-04-15T12:37:23.545Z,61.81
2023-04-15T12:42:25.909Z,61.57
2023-04-15T12:47:28.191Z,60.77
2023-04-15T12:52:30.486Z,61.80
2023-04-15T12:57:33.122Z,60.75
2023-04-15T13:02:35.449Z,62.75
2023-04-15T13:07:37.712Z,61.27
2023-04-15T13:12:39.912Z,61.86
2023-04-15T13:17:42.144Z,61.60
2023-04-15T13:22:44.461Z,61.39
2023-04-15T13:27:47.374Z,61.75
2023-04-15T13:32:51.314Z,61.18
2023-04-15T13:37:55.806Z,58.48
2023-04-15T13:42:58.708Z,59.42
2023-04-15T13:48:01.388Z,59.43
2023-04-15T13:53:03.596Z,59.09
2023-04-15T13:58:06.230Z,59.51
2023-04-15T14:03:08.434Z,59.25
2023-04-15T14:08:10.972Z,60.60
2023-04-15T14:13:13.181Z,59.58
2023-04-15T14:18:15.552Z,61.47
2023-04-15T14:23:17.789Z,60.34
2023-04-15T14:28:20.002Z,57.16
2023-04-15T14:33:22.105Z,56.57
2023-04-15T14:38:24.506Z,57.51
2023-04-15T14:43:26.729Z,58.56
2023-04-15T14:48:29.350Z,58.56
2023-04-15T14:53:31.713Z,59.19
2023-04-15T14:58:33.985Z,61.10
2023-04-15T15:03:36.507Z,60.66
2023-04-15T15:08:38.770Z,59.57
2023-04-15T15:13:40.866Z,61.41
2023-04-15T15:18:43.153Z,59.08
2023-04-15T15:23:46.019Z,58.91
2023-04-15T15:28:50.510Z,59.60
2023-04-15T15:33:53.206Z,59.79
2023-04-15T15:38:55.657Z,60.39
2023-04-15T15:43:57.761Z,60.20
2023-04-15T15:49:00.037Z,60.04
2023-04-15T15:54:02.127Z,58.86
2023-04-15T15:59:04.995Z,59.29
2023-04-15T16:04:07.652Z,59.87
2023-04-15T16:09:10.090Z,59.54
2023-04-15T16:14:13.959Z,58.29
2023-04-15T16:19:16.460Z,58.67
2023-04-15T16:24:18.692Z,59.20
2023-04-15T16:29:20.785Z,60.64
2023-04-15T16:34:22.950Z,59.90
2023-04-15T16:39:25.254Z,60.73
2023-04-15T16:44:27.640Z,60.97
2023-04-15T16:49:30.387Z,60.85
2023-04-15T16:54:34.883Z,61.11
2023-04-15T16:59:38.310Z,61.87
2023-04-15T17:04:41.638Z,60.80
2023-04-15T17:09:43.967Z,62.21
2023-04-15T17:14:46.213Z,62.92
2023-04-15T17:19:48.571Z,62.30
2023-04-15T17:24:51.045Z,62.37
2023-04-15T17:29:53.228Z,60.85
2023-04-15T17:34:55.527Z,62.39
2023-04-15T17:39:57.773Z,62.84
2023-04-15T17:45:00.051Z,65.03
2023-04-15T17:50:02.327Z,64.16
2023-04-15T17:55:04.895Z,65.56
2023-04-15T18:00:08.950Z,67.60
2023-04-15T18:05:15.237Z,67.51
2023-04-15T18:10:17.716Z,67.28
2023-04-15T18:15:19.928Z,66.78
2023-04-15T18:20:22.319Z,65.74
2023-04-15T18:25:24.569Z,67.58
2023-04-15T18:30:26.801Z,67.23
2023-04-15T18:35:30.082Z,67.48
2023-04-15T18:40:32.975Z,68.74
2023-04-15T18:45:37.152Z,69.46
2023-04-15T18:50:39.404Z,69.61
2023-04-15T18:55:41.706Z,68.44
2023-04-15T19:00:43.977Z,68.56
2023-04-15T19:05:46.458Z,67.93
2023-04-15T19:10:48.651Z,67.86
2023-04-15T19:15:50.740Z,67.10
2023-04-15T19:20:55.817Z,68.04
2023-04-15T19:25:58.710Z,67.68
2023-04-15T19:31:00.913Z,68.38
2023-04-15T19:36:06.778Z,67.10
2023-04-15T19:41:10.361Z,68.24
2023-04-15T19:46:13.480Z,69.00
2023-04-15T19:51:15.975Z,67.40
2023-04-15T19:56:18.336Z,67.42
2023-04-15T20:01:21.445Z,67.18
2023-04-15T20:06:23.830Z,66.83
2023-04-15T20:12:47.476Z,66.30
2023-04-15T20:16:51.784Z,66.75
2023-04-15T20:21:54.489Z,66.42
2023-04-15T20:26:57.671Z,67.37
2023-04-15T20:31:59.908Z,69.71
2023-04-15T20:37:02.425Z,71.29
2023-04-15T20:42:10.846Z,67.05
2023-04-15T20:47:13.363Z,70.11
2023-04-15T20:52:15.807Z,67.60
2023-04-15T20:57:18.059Z,71.15
2023-04-15T21:02:20.308Z,66.75
2023-04-15T21:07:22.645Z,67.08
2023-04-15T21:12:24.766Z,67.75
2023-04-15T21:17:27.117Z,69.31
2023-04-15T21:22:29.325Z,68.91
2023-04-15T21:27:31.567Z,65.92
2023-04-15T21:32:33.909Z,64.66
2023-04-15T21:37:37.671Z,64.26
2023-04-15T21:42:39.942Z,66.69
2023-04-15T21:48:06.776Z,66.24
2023-04-15T21:53:07.997Z,68.87
2023-04-15T21:58:10.255Z,69.39
2023-04-15T22:03:12.500Z,71.90
2023-04-15T22:08:14.697Z,67.00
2023-04-15T22:13:16.881Z,69.47
2023-04-15T22:18:19.021Z,70.06
2023-04-15T22:23:21.161Z,70.88
2023-04-15T22:28:23.382Z,72.17
2023-04-15T22:33:25.487Z,72.25
2023-04-15T22:38:27.580Z,72.25
2023-04-15T22:43:29.792Z,73.62
2023-04-15T22:48:32.017Z,70.06
2023-04-15T22:53:34.242Z,74.77
2023-04-15T22:58:36.357Z,71.51
2023-04-15T23:03:53.709Z,74.08
2023-04-15T23:08:59.583Z,71.88
2023-04-15T23:14:02.345Z,75.33
2023-04-15T23:19:04.459Z,74.16
2023-04-15T23:24:07.064Z,76.02
2023-04-15T23:29:10.546Z,75.33
2023-04-15T23:34:12.787Z,77.81
2023-04-15T23:39:14.875Z,75.58
2023-04-15T23:44:16.977Z,75.60
2023-04-15T23:49:20.324Z,76.49
2023-04-15T23:54:22.839Z,76.69
2023-04-15T23:59:25.353Z,76.14
